Time;durP1;ratioP1;P1;durP2;ratioP2;P2;SDS_P1;SDS_P2;PMS_P1;PMS_P2;Temp;Humidity;BMP_temperature;BMP_pressure;BME280_temperature;BME280_humidity;BME280_pressure;Samples;Min_cycle;Max_cycle;Signal;HPM_P1;HPM_P2
2022/01/05 00:02:18;;;;;;;9.50;1.40;;;6.30;99.90;;;;;;5029960;28;20062;-83
2022/01/05 00:04:45;;;;;;;6.20;1.42;;;6.40;99.90;;;;;;5030097;28;20033;-83
2022/01/05 00:07:12;;;;;;;8.00;1.42;;;6.30;99.90;;;;;;5029641;28;20029;-82
2022/01/05 00:09:37;;;;;;;13.48;2.33;;;6.30;99.90;;;;;;5029757;28;20552;-83
2022/01/05 00:12:03;;;;;;;5.55;0.98;;;6.30;99.90;;;;;;5030136;28;20042;-83
2022/01/05 00:14:29;;;;;;;8.52;1.33;;;6.30;99.90;;;;;;5029880;28;20572;-83
2022/01/05 00:16:55;;;;;;;7.82;1.45;;;6.30;99.90;;;;;;5012478;28;20025;-83
2022/01/05 00:19:20;;;;;;;10.85;1.40;;;6.30;99.90;;;;;;5004408;28;20423;-83
2022/01/05 00:21:48;;;;;;;8.43;1.38;;;6.30;99.90;;;;;;5010190;28;20060;-83
2022/01/05 00:24:14;;;;;;;8.05;1.60;;;6.30;99.90;;;;;;5011082;28;20034;-83
2022/01/05 00:26:39;;;;;;;9.02;1.55;;;6.30;99.90;;;;;;5010452;28;20113;-83
2022/01/05 00:29:05;;;;;;;11.48;1.23;;;6.30;99.90;;;;;;5010440;28;20553;-84
2022/01/05 00:31:31;;;;;;;8.10;1.20;;;6.30;99.90;;;;;;5010467;28;20033;-83
2022/01/05 00:33:56;;;;;;;10.88;1.25;;;6.30;99.90;;;;;;5010495;28;20054;-83
2022/01/05 00:36:22;;;;;;;11.48;1.90;;;6.30;99.90;;;;;;4989475;28;20026;-83
2022/01/05 00:38:48;;;;;;;9.15;1.42;;;6.30;99.90;;;;;;5008777;28;20113;-83
2022/01/05 00:41:14;;;;;;;6.55;1.10;;;6.30;99.90;;;;;;5010238;28;20459;-83
2022/01/05 00:43:40;;;;;;;13.68;1.58;;;6.30;99.90;;;;;;5010100;28;20112;-83
2022/01/05 00:46:06;;;;;;;8.52;1.40;;;6.30;99.90;;;;;;5010237;28;20022;-83
2022/01/05 00:48:35;;;;;;;9.02;1.67;;;6.20;99.90;;;;;;5010145;28;20022;-83
2022/01/05 00:51:03;;;;;;;7.50;1.45;;;6.20;99.90;;;;;;5009818;28;20046;-83
2022/01/05 00:53:29;;;;;;;8.25;1.38;;;6.30;99.90;;;;;;5010247;28;20495;-83
2022/01/05 00:55:55;;;;;;;10.02;1.75;;;6.30;99.90;;;;;;5010259;28;20108;-83
2022/01/05 00:58:21;;;;;;;6.60;1.50;;;6.30;99.90;;;;;;5010214;28;20078;-83
2022/01/05 01:00:47;;;;;;;11.32;1.63;;;6.20;99.90;;;;;;5010118;28;20546;-83
2022/01/05 01:03:13;;;;;;;8.60;1.40;;;6.30;99.90;;;;;;5010153;28;20034;-83
2022/01/05 01:05:39;;;;;;;9.20;1.27;;;6.30;99.90;;;;;;5009418;28;20018;-83
2022/01/05 01:08:05;;;;;;;8.23;1.50;;;6.40;99.90;;;;;;5009926;28;20026;-83
2022/01/05 01:10:30;;;;;;;10.75;1.30;;;6.40;99.90;;;;;;5009920;28;20088;-83
2022/01/05 01:12:57;;;;;;;13.70;1.48;;;6.40;99.90;;;;;;5009967;28;20029;-83
2022/01/05 01:15:22;;;;;;;10.00;1.45;;;6.40;99.90;;;;;;5010072;28;20025;-83
2022/01/05 01:17:48;;;;;;;13.82;2.05;;;6.50;99.90;;;;;;5010029;28;20101;-83
2022/01/05 01:20:14;;;;;;;12.23;1.98;;;6.40;99.90;;;;;;5009511;28;20044;-83
2022/01/05 01:22:40;;;;;;;5.78;1.13;;;6.50;99.90;;;;;;5010088;28;20022;-83
2022/01/05 01:25:07;;;;;;;9.88;1.35;;;6.50;99.90;;;;;;5009472;28;20026;-83
2022/01/05 01:27:33;;;;;;;10.68;1.52;;;6.40;99.90;;;;;;5003622;28;20352;-83
2022/01/05 01:29:58;;;;;;;15.57;1.65;;;6.40;99.90;;;;;;5009488;28;20041;-83
2022/01/05 01:32:24;;;;;;;11.90;1.63;;;6.40;99.90;;;;;;5009933;28;20025;-83
2022/01/05 01:34:50;;;;;;;13.77;1.73;;;6.40;99.90;;;;;;5009481;28;20032;-83
2022/01/05 01:37:16;;;;;;;9.98;1.42;;;6.40;99.90;;;;;;5009629;28;20029;-84
2022/01/05 01:39:42;;;;;;;8.95;1.45;;;6.40;99.90;;;;;;5009572;28;20033;-83
2022/01/05 01:42:08;;;;;;;12.55;1.65;;;6.40;99.90;;;;;;5009349;28;20464;-84
2022/01/05 01:44:33;;;;;;;17.88;2.03;;;6.40;99.90;;;;;;5009452;28;20026;-84
2022/01/05 01:46:59;;;;;;;9.55;1.85;;;6.40;99.90;;;;;;5009540;28;20093;-83
2022/01/05 01:49:25;;;;;;;8.05;1.42;;;6.50;99.90;;;;;;5009309;28;20046;-83
2022/01/05 01:51:50;;;;;;;11.50;1.55;;;6.60;99.90;;;;;;5009195;28;20541;-83
2022/01/05 01:54:17;;;;;;;13.13;1.92;;;6.60;99.90;;;;;;5009696;28;20026;-83
2022/01/05 01:56:46;;;;;;;18.50;2.30;;;6.70;99.90;;;;;;5009488;28;20109;-84
2022/01/05 01:59:12;;;;;;;11.15;1.50;;;6.70;99.90;;;;;;5010638;28;20034;-83
2022/01/05 02:01:40;;;;;;;16.70;2.20;;;6.70;99.90;;;;;;5013572;28;20040;-83
2022/01/05 02:04:06;;;;;;;11.88;1.70;;;6.70;99.90;;;;;;5013094;28;20509;-83
2022/01/05 02:06:32;;;;;;;9.35;2.00;;;6.80;99.90;;;;;;5012728;28;20022;-83
2022/01/05 02:09:02;;;;;;;9.15;1.70;;;6.80;99.90;;;;;;5012944;28;20030;-83
2022/01/05 02:11:27;;;;;;;12.57;1.75;;;6.90;99.90;;;;;;5013208;28;20030;-83
2022/01/05 02:13:53;;;;;;;12.75;1.95;;;6.90;99.90;;;;;;5013221;28;20033;-83
2022/01/05 02:16:21;;;;;;;11.05;2.40;;;6.90;99.90;;;;;;5013085;28;20111;-83
2022/01/05 02:18:59;;;;;;;10.35;1.38;;;7.00;99.90;;;;;;5012993;28;20510;-83
2022/01/05 02:21:25;;;;;;;10.20;2.53;;;7.00;99.90;;;;;;5012506;28;20113;-83
2022/01/05 02:23:51;;;;;;;13.35;1.65;;;6.90;99.90;;;;;;5013000;28;20507;-83
2022/01/05 02:26:18;;;;;;;13.05;1.65;;;6.90;99.90;;;;;;5012875;28;20486;-83
2022/01/05 02:28:44;;;;;;;12.68;1.63;;;6.80;99.90;;;;;;5012570;28;20549;-83
2022/01/05 02:31:10;;;;;;;10.07;1.40;;;6.80;99.90;;;;;;5012743;28;20029;-83
2022/01/05 02:33:37;;;;;;;5.32;1.40;;;6.70;99.90;;;;;;5013061;28;20025;-84
2022/01/05 02:36:04;;;;;;;15.05;1.70;;;6.70;99.90;;;;;;5012169;28;20497;-83
2022/01/05 02:38:30;;;;;;;8.93;1.50;;;6.70;99.90;;;;;;5012756;28;20498;-83
2022/01/05 02:40:56;;;;;;;14.68;1.85;;;6.70;99.90;;;;;;5012641;28;20054;-83
2022/01/05 02:43:22;;;;;;;8.75;1.45;;;6.70;99.90;;;;;;5012435;28;20498;-84
2022/01/05 02:45:48;;;;;;;9.60;1.23;;;6.70;99.90;;;;;;5012431;28;20022;-83
2022/01/05 02:48:14;;;;;;;7.60;1.30;;;6.80;99.90;;;;;;5012692;28;20036;-84
2022/01/05 02:50:40;;;;;;;10.27;2.33;;;6.70;99.90;;;;;;5011562;28;20049;-84
2022/01/05 02:53:05;;;;;;;11.60;2.40;;;6.70;99.90;;;;;;5012517;28;20022;-84
2022/01/05 02:55:31;;;;;;;11.95;1.83;;;6.60;99.90;;;;;;5012388;28;20433;-84
2022/01/05 02:57:57;;;;;;;11.25;1.92;;;6.60;99.90;;;;;;5012266;28;20022;-84
2022/01/05 03:00:23;;;;;;;10.10;1.80;;;6.60;99.90;;;;;;5031448;28;20014;-83
2022/01/05 03:02:48;;;;;;;14.55;3.55;;;6.60;99.90;;;;;;5031186;28;20107;-83
2022/01/05 03:05:14;;;;;;;11.02;1.83;;;6.60;99.90;;;;;;5030664;28;20391;-83
2022/01/05 03:07:40;;;;;;;7.78;1.88;;;6.60;99.90;;;;;;5031234;28;20417;-83
2022/01/05 03:10:10;;;;;;;11.35;2.03;;;6.60;99.90;;;;;;5030446;28;20034;-83
2022/01/05 03:12:38;;;;;;;11.35;1.88;;;6.60;99.90;;;;;;5030228;28;20053;-83
2022/01/05 03:15:05;;;;;;;8.45;1.60;;;6.70;99.90;;;;;;5030620;28;20026;-83
2022/01/05 03:17:30;;;;;;;12.15;1.73;;;6.70;99.90;;;;;;5031044;28;20025;-83
2022/01/05 03:19:56;;;;;;;12.30;2.22;;;6.60;99.90;;;;;;5030470;28;20097;-83
2022/01/05 03:22:22;;;;;;;15.98;2.17;;;6.70;99.90;;;;;;5031065;28;20026;-83
2022/01/05 03:24:49;;;;;;;11.55;2.28;;;6.70;99.90;;;;;;5030890;28;20490;-83
2022/01/05 03:27:14;;;;;;;14.93;2.00;;;6.70;99.90;;;;;;5030664;28;20021;-84
2022/01/05 03:29:40;;;;;;;13.95;2.35;;;6.70;99.90;;;;;;5030351;28;20506;-84
2022/01/05 03:32:06;;;;;;;11.45;1.90;;;6.60;99.90;;;;;;5030493;28;20026;-84
2022/01/05 03:34:32;;;;;;;10.25;1.58;;;6.60;99.90;;;;;;5030373;28;20057;-83
2022/01/05 03:36:59;;;;;;;15.82;1.92;;;6.60;99.90;;;;;;5030515;28;20505;-83
2022/01/05 03:39:26;;;;;;;11.68;2.00;;;6.50;99.90;;;;;;5030542;28;20064;-83
2022/01/05 03:41:51;;;;;;;16.70;2.10;;;6.50;99.90;;;;;;5030529;28;20039;-83
2022/01/05 03:44:17;;;;;;;10.50;2.08;;;6.60;99.90;;;;;;5030455;28;20029;-82
2022/01/05 03:46:43;;;;;;;18.67;2.80;;;6.50;99.90;;;;;;5030466;28;20104;-83
2022/01/05 03:49:08;;;;;;;15.45;2.28;;;6.40;99.90;;;;;;5030036;28;20057;-83
2022/01/05 03:51:34;;;;;;;19.35;2.90;;;6.40;99.90;;;;;;5012098;28;20510;-83
2022/01/05 03:54:00;;;;;;;11.80;1.40;;;6.40;99.90;;;;;;5030193;28;20039;-83
2022/01/05 03:56:25;;;;;;;15.90;1.67;;;6.40;99.90;;;;;;5030095;28;20472;-83
2022/01/05 03:58:51;;;;;;;13.00;1.60;;;6.40;99.90;;;;;;5030466;28;20032;-83
2022/01/05 04:01:17;;;;;;;14.40;1.95;;;6.40;99.90;;;;;;5029970;28;20021;-83
2022/01/05 04:03:43;;;;;;;18.45;2.60;;;6.30;99.90;;;;;;5030216;28;20474;-83
2022/01/05 04:06:08;;;;;;;7.13;1.67;;;6.40;99.90;;;;;;5030107;28;20048;-83
2022/01/05 04:08:34;;;;;;;9.80;2.25;;;6.50;99.90;;;;;;5029932;28;20098;-83
2022/01/05 04:11:00;;;;;;;10.73;2.28;;;6.50;99.90;;;;;;5030291;28;20038;-84
2022/01/05 04:13:25;;;;;;;16.80;2.22;;;6.50;99.90;;;;;;5029502;28;20021;-83
2022/01/05 04:15:51;;;;;;;11.85;2.38;;;6.50;99.90;;;;;;5029636;28;20036;-83
2022/01/05 04:18:17;;;;;;;12.88;2.15;;;6.40;99.90;;;;;;5029811;28;20112;-83
2022/01/05 04:20:43;;;;;;;8.60;1.83;;;6.30;99.90;;;;;;5029505;28;20466;-83
2022/01/05 04:23:09;;;;;;;11.38;1.85;;;6.30;99.90;;;;;;5029390;28;20045;-83
2022/01/05 04:25:35;;;;;;;13.45;2.40;;;6.30;99.90;;;;;;5030093;28;20087;-84
2022/01/05 04:28:02;;;;;;;19.02;2.38;;;6.30;99.90;;;;;;5029650;28;20447;-83
2022/01/05 04:30:28;;;;;;;11.88;2.40;;;6.30;99.90;;;;;;5029291;28;20516;-83
2022/01/05 04:32:54;;;;;;;14.48;2.05;;;6.20;99.90;;;;;;5029344;28;20025;-83
2022/01/05 04:35:19;;;;;;;13.10;2.30;;;6.10;99.90;;;;;;5029047;28;20095;-83
2022/01/05 04:37:45;;;;;;;9.55;1.98;;;6.10;99.90;;;;;;5029569;28;20021;-83
2022/01/05 04:40:12;;;;;;;11.90;2.13;;;6.00;99.90;;;;;;5029650;28;20116;-84
2022/01/05 04:42:38;;;;;;;12.95;1.80;;;6.00;99.90;;;;;;5029389;28;20049;-83
2022/01/05 04:45:05;;;;;;;13.52;2.28;;;6.00;99.90;;;;;;5029356;28;20021;-83
2022/01/05 04:47:30;;;;;;;12.02;2.15;;;6.00;99.90;;;;;;5029252;28;20022;-83
2022/01/05 04:49:56;;;;;;;17.40;2.58;;;5.90;99.90;;;;;;5028687;28;20564;-83
2022/01/05 04:52:22;;;;;;;15.82;2.30;;;5.90;99.90;;;;;;5029366;28;20013;-83
2022/01/05 04:54:47;;;;;;;16.50;2.97;;;5.90;99.90;;;;;;5029119;28;20800;-83
2022/01/05 04:57:15;;;;;;;9.90;2.05;;;5.90;99.90;;;;;;5029161;28;20025;-83
2022/01/05 04:59:40;;;;;;;16.30;2.40;;;5.80;99.90;;;;;;5029075;28;20025;-83
2022/01/05 05:02:06;;;;;;;13.43;2.20;;;5.80;99.90;;;;;;5027205;28;20021;-83
2022/01/05 05:04:32;;;;;;;17.38;2.15;;;5.80;99.90;;;;;;5011176;28;20084;-83
2022/01/05 05:06:58;;;;;;;16.40;2.50;;;5.80;99.90;;;;;;5011217;28;20160;-83
2022/01/05 05:09:23;;;;;;;13.48;2.22;;;5.90;99.90;;;;;;5029128;28;20482;-83
2022/01/05 05:11:50;;;;;;;13.63;2.15;;;5.90;99.90;;;;;;5028907;28;20288;-83
2022/01/05 05:14:15;;;;;;;9.77;1.73;;;5.80;99.90;;;;;;5028681;28;20393;-83
2022/01/05 05:16:41;;;;;;;15.90;2.10;;;5.70;99.90;;;;;;5028878;28;20029;-83
2022/01/05 05:19:07;;;;;;;14.23;2.10;;;5.70;99.90;;;;;;5028892;28;20155;-84
2022/01/05 05:21:33;;;;;;;16.08;1.77;;;5.70;99.90;;;;;;5028872;28;20505;-84
2022/01/05 05:23:58;;;;;;;14.80;2.13;;;5.70;99.90;;;;;;5011314;28;20508;-84
2022/01/05 05:26:24;;;;;;;11.98;1.98;;;5.60;99.90;;;;;;5028737;28;20096;-84
2022/01/05 05:28:50;;;;;;;14.82;2.13;;;5.70;99.90;;;;;;5028739;28;20029;-84
2022/01/05 05:31:16;;;;;;;28.80;3.15;;;5.70;99.90;;;;;;5028707;28;20524;-84
2022/01/05 05:33:41;;;;;;;20.75;2.78;;;5.60;99.90;;;;;;5028893;28;20071;-84
2022/01/05 05:36:07;;;;;;;14.48;2.17;;;5.70;99.90;;;;;;5032308;28;20532;-84
2022/01/05 05:38:33;;;;;;;21.05;3.67;;;5.60;99.90;;;;;;5032689;28;20034;-84
2022/01/05 05:40:59;;;;;;;16.52;2.75;;;5.60;99.90;;;;;;5032682;28;20026;-84
2022/01/05 05:43:25;;;;;;;15.63;2.20;;;5.70;99.90;;;;;;5033016;28;20029;-83
2022/01/05 05:45:51;;;;;;;14.25;2.47;;;5.60;99.90;;;;;;5015056;28;20079;-83
2022/01/05 05:48:16;;;;;;;21.40;2.70;;;5.60;99.90;;;;;;5032929;28;20036;-84
2022/01/05 05:50:42;;;;;;;9.52;1.58;;;5.60;99.90;;;;;;5032482;28;20107;-83
2022/01/05 05:53:08;;;;;;;11.95;1.63;;;5.60;99.90;;;;;;5032519;28;20029;-83
2022/01/05 05:55:34;;;;;;;13.32;2.65;;;5.60;99.90;;;;;;5033074;28;20351;-83
2022/01/05 05:58:00;;;;;;;15.18;1.80;;;5.60;99.90;;;;;;5032540;28;20025;-83
2022/01/05 06:00:26;;;;;;;9.52;1.95;;;5.60;99.90;;;;;;5032640;28;20026;-83
2022/01/05 06:02:52;;;;;;;19.98;2.22;;;5.60;99.90;;;;;;5014784;28;20524;-83
2022/01/05 06:05:18;;;;;;;10.88;1.83;;;5.50;99.90;;;;;;5032779;28;20022;-83
2022/01/05 06:07:43;;;;;;;14.13;2.10;;;5.50;99.90;;;;;;4986046;28;20053;-83
2022/01/05 06:10:10;;;;;;;16.80;2.92;;;5.50;99.90;;;;;;5013181;28;20065;-83
2022/01/05 06:12:35;;;;;;;12.38;1.77;;;5.50;99.90;;;;;;5012891;28;20026;-83
2022/01/05 06:15:01;;;;;;;16.70;2.40;;;5.60;99.90;;;;;;5013162;28;20097;-85
2022/01/05 06:17:26;;;;;;;12.55;2.03;;;5.60;99.90;;;;;;4995358;28;20478;-85
2022/01/05 06:19:52;;;;;;;15.00;2.95;;;5.60;99.90;;;;;;5012775;28;20037;-84
2022/01/05 06:22:18;;;;;;;16.75;2.63;;;5.60;99.90;;;;;;5013307;28;20109;-85
2022/01/05 06:24:44;;;;;;;12.88;2.58;;;5.60;99.90;;;;;;4995457;28;20481;-85
2022/01/05 06:27:11;;;;;;;12.50;2.22;;;5.60;99.90;;;;;;5013154;28;20049;-85
2022/01/05 06:29:38;;;;;;;18.25;2.42;;;5.60;99.90;;;;;;5012917;28;20095;-85
2022/01/05 06:32:05;;;;;;;23.40;4.45;;;5.60;99.90;;;;;;5012822;28;20022;-85
2022/01/05 06:34:31;;;;;;;17.55;2.97;;;5.50;99.90;;;;;;5012226;28;20514;-87
2022/01/05 06:36:56;;;;;;;14.50;3.17;;;5.60;99.90;;;;;;5012652;28;20025;-87
2022/01/05 06:39:22;;;;;;;10.57;2.53;;;5.50;99.90;;;;;;5015740;28;20988;-86
2022/01/05 06:41:47;;;;;;;15.52;2.38;;;5.60;99.90;;;;;;5014468;28;20060;-86
2022/01/05 06:44:13;;;;;;;17.55;2.80;;;5.50;99.90;;;;;;5007612;28;20033;-86
2022/01/05 06:46:39;;;;;;;17.88;2.47;;;5.60;99.90;;;;;;5009077;28;20018;-86
2022/01/05 06:49:04;;;;;;;17.40;2.17;;;5.50;99.90;;;;;;4993480;28;20053;-86
2022/01/05 06:51:30;;;;;;;9.95;2.63;;;5.50;99.90;;;;;;4992335;28;20026;-86
2022/01/05 06:53:56;;;;;;;16.98;2.40;;;5.60;99.90;;;;;;5012294;28;20066;-87
2022/01/05 06:56:22;;;;;;;17.40;2.50;;;5.50;99.90;;;;;;5012290;28;20045;-87
2022/01/05 06:58:48;;;;;;;15.40;2.40;;;5.40;99.90;;;;;;4996065;28;20463;-86
2022/01/05 07:01:14;;;;;;;22.30;2.30;;;5.50;99.90;;;;;;5011909;28;20025;-86
2022/01/05 07:03:40;;;;;;;16.27;2.65;;;5.50;99.90;;;;;;5011822;28;20191;-86
2022/01/05 07:06:05;;;;;;;14.70;2.53;;;5.50;99.90;;;;;;5011575;28;20270;-86
2022/01/05 07:08:31;;;;;;;16.05;2.70;;;5.50;99.90;;;;;;5009992;28;20196;-87
2022/01/05 07:10:57;;;;;;;24.05;2.97;;;5.50;99.90;;;;;;5013193;28;20061;-86
2022/01/05 07:13:23;;;;;;;14.43;3.60;;;5.50;99.90;;;;;;4991012;28;20037;-86
2022/01/05 07:15:49;;;;;;;10.95;2.60;;;5.50;99.90;;;;;;4993436;28;20041;-86
2022/01/05 07:18:15;;;;;;;17.85;3.15;;;5.40;99.90;;;;;;5011824;28;20507;-86
2022/01/05 07:20:41;;;;;;;17.02;2.45;;;5.50;99.90;;;;;;5010763;28;20017;-86
2022/01/05 07:23:08;;;;;;;13.63;2.80;;;5.40;99.90;;;;;;5011887;28;20114;-86
2022/01/05 07:25:34;;;;;;;11.90;2.20;;;5.40;99.90;;;;;;5011563;28;20038;-86
2022/01/05 07:28:00;;;;;;;20.42;3.05;;;5.40;99.90;;;;;;5011302;28;20037;-86
2022/01/05 07:30:25;;;;;;;16.35;4.15;;;5.40;99.90;;;;;;5010819;28;20049;-86
2022/01/05 07:32:51;;;;;;;58.72;21.83;;;5.40;99.90;;;;;;5011456;28;20022;-86
2022/01/05 07:35:17;;;;;;;58.85;22.85;;;5.30;99.90;;;;;;5010863;28;20040;-86
2022/01/05 07:37:42;;;;;;;80.22;34.40;;;5.30;99.90;;;;;;5010009;28;20478;-86
2022/01/05 07:40:09;;;;;;;116.53;44.80;;;5.30;99.90;;;;;;5009557;28;20030;-86
2022/01/05 07:42:35;;;;;;;61.08;26.55;;;5.30;99.90;;;;;;4993141;28;20096;-86
2022/01/05 07:45:05;;;;;;;30.08;11.52;;;5.30;99.90;;;;;;5011227;28;20026;-86
2022/01/05 07:47:31;;;;;;;68.03;32.83;;;5.40;99.90;;;;;;5011199;28;20026;-87
2022/01/05 07:49:57;;;;;;;127.28;59.55;;;5.30;99.90;;;;;;4992239;28;20418;-86
2022/01/05 07:52:23;;;;;;;98.90;49.78;;;5.30;99.90;;;;;;5010873;28;20021;-86
2022/01/05 07:54:51;;;;;;;91.38;50.72;;;5.30;99.90;;;;;;5010913;28;20512;-86
2022/01/05 07:57:17;;;;;;;92.45;54.28;;;5.30;99.90;;;;;;5010377;28;20018;-86
2022/01/05 07:59:42;;;;;;;67.05;40.80;;;5.40;99.90;;;;;;5010622;28;20026;-86
2022/01/05 08:02:11;;;;;;;42.20;28.40;;;5.50;99.90;;;;;;5010856;28;20521;-86
2022/01/05 08:04:37;;;;;;;44.40;25.48;;;5.50;99.90;;;;;;5010232;28;20038;-86
2022/01/05 08:07:02;;;;;;;24.45;8.05;;;5.50;99.90;;;;;;5010809;28;20091;-86
2022/01/05 08:09:29;;;;;;;16.65;7.10;;;5.50;99.90;;;;;;5010048;28;20030;-86
2022/01/05 08:11:59;;;;;;;18.23;3.70;;;5.50;99.90;;;;;;5010500;28;20022;-86
2022/01/05 08:14:24;;;;;;;19.40;3.85;;;5.50;99.90;;;;;;5010621;28;20026;-86
2022/01/05 08:16:50;;;;;;;13.45;3.30;;;5.50;99.90;;;;;;5010527;28;20081;-86
2022/01/05 08:19:16;;;;;;;17.60;3.20;;;5.50;99.90;;;;;;4992494;28;20061;-86
2022/01/05 08:21:42;;;;;;;22.83;4.28;;;5.40;99.90;;;;;;5010089;28;20030;-86
2022/01/05 08:24:07;;;;;;;20.33;6.72;;;5.40;99.90;;;;;;5010332;28;20021;-87
2022/01/05 08:26:33;;;;;;;32.75;14.70;;;5.50;99.90;;;;;;5010353;28;20022;-86
2022/01/05 08:28:59;;;;;;;31.67;18.15;;;5.50;99.90;;;;;;5009983;28;20033;-86
2022/01/05 08:31:25;;;;;;;39.72;25.23;;;5.50;99.90;;;;;;5010163;28;20549;-86
2022/01/05 08:33:51;;;;;;;85.85;53.63;;;5.60;99.90;;;;;;4989726;28;20034;-86
2022/01/05 08:36:16;;;;;;;76.50;43.03;;;5.70;99.90;;;;;;4991950;28;20025;-86
2022/01/05 08:38:42;;;;;;;62.92;39.05;;;5.70;99.90;;;;;;5010451;28;20059;-87
2022/01/05 08:41:08;;;;;;;67.10;34.63;;;5.70;99.90;;;;;;5009530;28;20053;-86
2022/01/05 08:43:33;;;;;;;45.47;20.98;;;5.80;99.90;;;;;;5009928;28;20026;-87
2022/01/05 08:46:00;;;;;;;39.67;18.08;;;5.90;99.90;;;;;;5010758;28;20245;-86
2022/01/05 08:48:26;;;;;;;34.00;12.90;;;6.00;99.90;;;;;;5010020;28;20459;-86
2022/01/05 08:50:53;;;;;;;17.13;5.90;;;6.10;99.90;;;;;;5009379;28;20129;-86
2022/01/05 08:53:19;;;;;;;20.60;6.00;;;6.10;99.90;;;;;;4991757;28;20049;-86
2022/01/05 08:55:48;;;;;;;22.70;6.80;;;6.10;99.90;;;;;;5009790;28;20053;-86
2022/01/05 08:58:16;;;;;;;31.45;7.95;;;6.10;99.90;;;;;;5009925;28;20506;-86
2022/01/05 09:00:41;;;;;;;26.25;7.68;;;6.00;99.90;;;;;;5009342;28;20084;-84
2022/01/05 09:03:07;;;;;;;21.25;5.40;;;6.00;99.90;;;;;;5011198;28;20322;-86
2022/01/05 09:05:34;;;;;;;20.02;5.32;;;6.10;99.90;;;;;;5009354;28;20578;-86
2022/01/05 09:08:00;;;;;;;21.50;4.85;;;6.10;99.90;;;;;;5009258;28;20030;-87
2022/01/05 09:10:25;;;;;;;18.45;4.30;;;6.10;99.90;;;;;;4991045;28;20497;-85
2022/01/05 09:12:53;;;;;;;21.10;7.35;;;6.10;99.90;;;;;;4991904;28;20027;-87
2022/01/05 09:15:19;;;;;;;23.00;7.78;;;6.10;99.90;;;;;;5009587;28;20026;-86
2022/01/05 09:17:45;;;;;;;24.80;10.02;;;6.20;99.90;;;;;;5009346;28;20030;-85
2022/01/05 09:20:11;;;;;;;22.55;7.68;;;6.30;99.90;;;;;;5008537;28;20081;-84
2022/01/05 09:22:38;;;;;;;31.63;10.68;;;6.40;99.90;;;;;;5009305;28;20494;-84
2022/01/05 09:25:09;;;;;;;25.05;8.43;;;6.40;99.90;;;;;;5009588;28;20030;-87
2022/01/05 09:27:37;;;;;;;26.30;7.05;;;6.50;99.90;;;;;;4991907;28;20121;-87
2022/01/05 09:30:06;;;;;;;26.73;8.73;;;6.50;99.90;;;;;;5008613;28;20429;-87
2022/01/05 09:32:31;;;;;;;46.28;9.32;;;6.50;99.90;;;;;;5009191;28;20049;-86
2022/01/05 09:34:57;;;;;;;70.28;11.48;;;6.60;99.90;;;;;;5009179;28;20484;-87
2022/01/05 09:37:31;;;;;;;63.45;11.25;;;6.70;99.90;;;;;;5009137;28;20495;-87
2022/01/05 09:42:41;;;;;;;42.67;7.75;;;6.80;99.90;;;;;;5009213;28;20572;-87
2022/01/05 09:45:22;;;;;;;22.35;4.88;;;6.80;99.90;;;;;;5009647;28;20018;-86
2022/01/05 09:47:56;;;;;;;19.15;5.57;;;6.90;99.90;;;;;;5009101;28;20021;-87
2022/01/05 09:50:25;;;;;;;18.52;5.55;;;7.00;99.90;;;;;;4987233;28;20470;-87
2022/01/05 09:52:51;;;;;;;21.05;7.38;;;7.00;99.90;;;;;;4985532;28;20491;-87
2022/01/05 09:55:17;;;;;;;15.80;3.40;;;7.10;99.90;;;;;;4991753;28;20076;-87
2022/01/05 09:57:45;;;;;;;17.25;3.38;;;7.10;99.90;;;;;;5008956;28;20026;-86
2022/01/05 10:00:14;;;;;;;17.45;3.33;;;7.10;99.90;;;;;;5007843;28;20195;-86
2022/01/05 10:02:40;;;;;;;18.38;4.70;;;7.10;99.90;;;;;;5009122;28;20037;-86
2022/01/05 10:05:11;;;;;;;17.27;3.40;;;7.20;99.90;;;;;;4980122;28;20034;-87
2022/01/05 10:07:38;;;;;;;15.35;3.65;;;7.30;99.90;;;;;;5002863;28;20079;-87
2022/01/05 10:10:04;;;;;;;16.63;3.42;;;7.40;99.90;;;;;;5010588;28;20092;-86
2022/01/05 10:12:30;;;;;;;13.15;2.90;;;7.50;99.90;;;;;;5028011;28;20025;-87
2022/01/05 10:14:55;;;;;;;14.70;2.50;;;7.50;99.90;;;;;;5010291;28;20029;-87
2022/01/05 10:17:32;;;;;;;17.45;3.58;;;7.50;99.90;;;;;;5010695;28;20053;-87
2022/01/05 10:20:06;;;;;;;19.40;2.38;;;7.60;99.90;;;;;;5015434;28;20025;-86
2022/01/05 10:22:42;;;;;;;12.93;2.30;;;7.70;99.90;;;;;;4989973;28;20286;-86
2022/01/05 10:25:15;;;;;;;17.55;2.90;;;7.70;99.90;;;;;;4993959;28;20406;-89
2022/01/05 10:27:41;;;;;;;14.50;4.82;;;7.70;99.90;;;;;;5012651;28;20030;-87
2022/01/05 10:30:12;;;;;;;11.55;2.58;;;7.80;99.90;;;;;;5012027;28;20053;-87
2022/01/05 10:32:38;;;;;;;15.90;2.88;;;7.80;99.90;;;;;;5012668;28;20398;-86
2022/01/05 10:35:16;;;;;;;18.25;2.80;;;7.80;99.90;;;;;;5012039;28;20373;-89
2022/01/05 10:37:44;;;;;;;13.63;3.13;;;7.90;99.90;;;;;;5012429;28;20076;-87
2022/01/05 10:40:22;;;;;;;19.90;2.85;;;7.90;99.90;;;;;;5011937;28;20025;-88
2022/01/05 10:42:52;;;;;;;15.50;2.88;;;7.90;99.90;;;;;;5012144;28;20026;-88
2022/01/05 10:45:46;;;;;;;15.27;2.45;;;8.00;99.90;;;;;;5012057;28;20130;-87
2022/01/05 10:48:18;;;;;;;15.02;2.30;;;8.10;99.90;;;;;;5011864;28;20037;-87
2022/01/05 10:50:45;;;;;;;15.52;2.95;;;8.10;99.90;;;;;;5012039;28;20049;-87
2022/01/05 10:53:16;;;;;;;19.95;2.63;;;8.10;99.90;;;;;;5030937;28;20083;-86
2022/01/05 10:55:44;;;;;;;27.42;3.95;;;8.20;99.90;;;;;;5030881;28;20160;-87
2022/01/05 10:58:12;;;;;;;25.27;3.40;;;8.30;99.90;;;;;;5031083;28;20026;-87
2022/01/05 11:00:52;;;;;;;21.05;4.97;;;8.30;99.90;;;;;;5030325;28;20018;-87
2022/01/05 11:03:39;;;;;;;28.98;8.02;;;8.30;99.90;;;;;;4992847;28;20079;-87
2022/01/05 11:06:11;;;;;;;37.15;6.22;;;8.40;99.90;;;;;;5019395;28;20030;-87
2022/01/05 11:08:49;;;;;;;28.38;4.05;;;8.40;99.90;;;;;;5030723;28;20040;-87
2022/01/05 11:11:39;;;;;;;17.45;4.72;;;8.50;99.90;;;;;;5030533;28;20096;-87
2022/01/05 11:14:12;;;;;;;18.73;3.40;;;8.60;99.90;;;;;;5031441;28;20028;-87
2022/01/05 11:16:40;;;;;;;18.23;6.43;;;8.70;99.90;;;;;;4997665;28;20050;-86
2022/01/05 11:19:36;;;;;;;21.52;4.63;;;8.60;99.90;;;;;;4992861;28;20033;-86
2022/01/05 11:22:14;;;;;;;25.65;6.78;;;8.70;99.90;;;;;;4984959;28;20033;-88
2022/01/05 11:24:48;;;;;;;15.02;3.80;;;8.70;99.90;;;;;;5012548;28;20021;-88
2022/01/05 11:27:20;;;;;;;15.70;6.85;;;8.70;99.90;;;;;;5012670;28;20437;-87
2022/01/05 11:29:47;;;;;;;27.27;8.70;;;8.70;99.90;;;;;;5008938;28;20030;-87
2022/01/05 11:32:15;;;;;;;30.40;10.52;;;8.80;99.90;;;;;;4993006;28;20495;-88
2022/01/05 11:34:42;;;;;;;21.73;6.20;;;8.80;99.90;;;;;;5029806;28;20017;-87
2022/01/05 11:37:09;;;;;;;16.58;4.20;;;8.70;99.90;;;;;;5012707;28;20021;-87
2022/01/05 11:39:44;;;;;;;20.90;4.63;;;8.80;99.90;;;;;;5029670;28;20021;-87
2022/01/05 11:42:13;;;;;;;17.15;5.18;;;8.80;99.90;;;;;;5005087;28;20076;-87
2022/01/05 11:44:51;;;;;;;15.63;3.17;;;8.70;99.90;;;;;;4993331;28;20032;-87
2022/01/05 11:47:24;;;;;;;19.55;5.85;;;8.80;99.90;;;;;;5010799;28;20029;-87
2022/01/05 11:49:52;;;;;;;16.73;4.35;;;8.90;99.90;;;;;;4991720;28;20058;-87
2022/01/05 11:52:18;;;;;;;22.08;5.07;;;8.90;99.90;;;;;;4992567;28;20613;-86
2022/01/05 11:55:05;;;;;;;16.35;3.08;;;9.00;99.90;;;;;;5010736;28;20079;-86
2022/01/05 11:57:31;;;;;;;13.50;2.42;;;8.90;99.90;;;;;;5011158;28;20029;-87
2022/01/05 12:00:18;;;;;;;10.65;1.95;;;9.00;99.90;;;;;;4992603;28;20025;-87
2022/01/05 12:02:44;;;;;;;11.60;2.20;;;9.10;99.90;;;;;;4993143;28;20060;-87
2022/01/05 12:05:11;;;;;;;15.07;3.00;;;9.00;99.90;;;;;;5010070;28;20482;-87
2022/01/05 12:07:47;;;;;;;13.30;3.65;;;9.10;99.90;;;;;;5010687;28;20483;-87
2022/01/05 12:10:21;;;;;;;30.48;10.57;;;9.20;99.90;;;;;;5009159;28;20026;-86
2022/01/05 12:12:58;;;;;;;22.38;6.38;;;9.30;99.90;;;;;;5010781;28;20057;-87
2022/01/05 12:15:43;;;;;;;21.42;9.05;;;9.20;99.90;;;;;;5010539;28;20026;-87
2022/01/05 12:18:20;;;;;;;12.57;2.97;;;9.20;99.90;;;;;;5010307;28;20030;-89
2022/01/05 12:20:45;;;;;;;11.93;3.20;;;9.20;99.90;;;;;;5009369;28;20022;-88
2022/01/05 12:23:17;;;;;;;15.23;3.35;;;9.20;99.90;;;;;;5010386;28;20026;-90
2022/01/05 12:26:07;;;;;;;10.50;2.03;;;9.10;99.90;;;;;;5008155;28;20109;-88
2022/01/05 12:28:54;;;;;;;12.57;2.78;;;9.20;99.90;;;;;;5001323;28;20041;-87
2022/01/05 12:31:51;;;;;;;16.52;3.50;;;9.30;99.90;;;;;;5010311;28;20041;-87
2022/01/05 12:34:54;;;;;;;11.93;2.72;;;9.30;99.90;;;;;;5009828;28;20025;-88
2022/01/05 12:37:47;;;;;;;13.88;3.80;;;9.40;99.90;;;;;;5009937;28;20022;-88
2022/01/05 12:40:39;;;;;;;14.80;3.65;;;9.40;99.90;;;;;;5009463;28;20482;-89
2022/01/05 12:43:13;;;;;;;11.65;2.63;;;9.40;99.90;;;;;;5009729;28;20375;-88
2022/01/05 12:45:49;;;;;;;12.05;2.78;;;9.50;99.90;;;;;;5009282;28;20403;-88
2022/01/05 12:48:33;;;;;;;6.32;1.63;;;9.50;99.90;;;;;;5009754;28;20049;-87
2022/01/05 12:51:42;;;;;;;16.27;2.88;;;9.60;99.90;;;;;;4988307;28;20054;-88
2022/01/05 12:54:11;;;;;;;15.15;2.72;;;9.60;99.90;;;;;;5006900;28;20029;-88
2022/01/05 12:56:41;;;;;;;20.88;3.05;;;9.50;99.90;;;;;;5009357;28;20065;-88